Time;durP1;ratioP1;P1;durP2;ratioP2;P2;SDS_P1;SDS_P2;PMS_P1;PMS_P2;Temp;Humidity;BMP_temperature;BMP_pressure;BME280_temperature;BME280_humidity;BME280_pressure;Samples;Min_cycle;Max_cycle;Signal;HPM_P1;HPM_P2
2024/01/17 00:00:33;;;;;;;89.97;54.88;;;;;;;;;;4876149;29;20029;-91
2024/01/17 00:02:59;;;;;;;88.80;55.20;;;;;;;;;;4864619;29;20029;-92
2024/01/17 00:05:25;;;;;;;91.65;55.45;;;;;;;;;;4887159;29;20017;-93
2024/01/17 00:07:52;;;;;;;92.07;54.00;;;;;;;;;;4889261;29;20029;-92
2024/01/17 00:10:24;;;;;;;93.25;58.80;;;;;;;;;;4867921;29;20029;-92
2024/01/17 00:12:54;;;;;;;104.38;59.05;;;;;;;;;;4863310;29;20040;-92
2024/01/17 00:15:20;;;;;;;104.90;58.40;;;;;;;;;;4864160;29;20035;-92
2024/01/17 00:17:46;;;;;;;95.28;57.88;;;;;;;;;;4863844;29;20084;-92
2024/01/17 00:20:13;;;;;;;94.57;57.88;;;;;;;;;;4863903;29;20033;-91
2024/01/17 00:22:45;;;;;;;92.80;56.72;;;;;;;;;;4869709;29;20105;-93
2024/01/17 00:25:11;;;;;;;94.47;58.90;;;;;;;;;;4864892;29;20464;-91
2024/01/17 00:27:41;;;;;;;99.25;60.55;;;;;;;;;;4864096;29;20028;-93
2024/01/17 00:30:14;;;;;;;92.55;58.03;;;;;;;;;;4863851;29;20124;-92
2024/01/17 00:32:40;;;;;;;92.23;59.93;;;;;;;;;;4864074;29;20112;-92
2024/01/17 00:35:09;;;;;;;92.38;56.65;;;;;;;;;;4863951;29;20041;-92
2024/01/17 00:37:38;;;;;;;96.13;58.22;;;;;;;;;;4863651;29;20033;-92
2024/01/17 00:40:04;;;;;;;89.03;56.90;;;;;;;;;;4864254;29;20033;-92
2024/01/17 00:42:33;;;;;;;82.03;53.85;;;;;;;;;;4863772;29;20036;-92
2024/01/17 00:45:00;;;;;;;77.97;50.50;;;;;;;;;;4863961;29;20036;-91
2024/01/17 00:47:26;;;;;;;85.95;54.13;;;;;;;;;;4871672;29;20061;-92
2024/01/17 00:49:55;;;;;;;63.70;45.70;;;;;;;;;;4863489;29;20033;-92
2024/01/17 00:52:23;;;;;;;58.03;44.03;;;;;;;;;;4863784;29;20037;-91
2024/01/17 00:54:55;;;;;;;52.80;43.40;;;;;;;;;;4874299;29;20064;-91
2024/01/17 00:57:27;;;;;;;59.53;43.72;;;;;;;;;;4882471;29;20029;-93
2024/01/17 00:59:59;;;;;;;63.90;43.95;;;;;;;;;;4882059;29;20059;-90
2024/01/17 01:02:25;;;;;;;67.63;46.65;;;;;;;;;;4898617;29;20028;-93
2024/01/17 01:04:54;;;;;;;66.18;46.53;;;;;;;;;;4882184;29;20032;-92
2024/01/17 01:07:33;;;;;;;69.38;48.03;;;;;;;;;;4882317;29;20033;-95
2024/01/17 01:10:26;;;;;;;67.72;47.40;;;;;;;;;;4881985;29;20029;-91
2024/01/17 01:12:58;;;;;;;65.15;46.95;;;;;;;;;;4882293;29;20037;-92
2024/01/17 01:15:27;;;;;;;69.88;48.47;;;;;;;;;;4881906;29;20504;-91
2024/01/17 01:17:56;;;;;;;69.68;47.95;;;;;;;;;;4881904;29;20025;-92
2024/01/17 01:20:22;;;;;;;61.58;46.42;;;;;;;;;;4882020;29;20036;-93
2024/01/17 01:22:51;;;;;;;74.80;47.17;;;;;;;;;;4882026;29;20063;-92
2024/01/17 01:25:20;;;;;;;58.75;45.08;;;;;;;;;;4885321;29;20036;-91
2024/01/17 01:27:53;;;;;;;53.47;42.88;;;;;;;;;;4879691;29;20043;-92
2024/01/17 01:30:19;;;;;;;50.55;41.97;;;;;;;;;;4866923;29;20044;-92
2024/01/17 01:32:45;;;;;;;51.20;42.38;;;;;;;;;;4872708;29;20470;-92
2024/01/17 01:35:11;;;;;;;51.25;44.05;;;;;;;;;;4885476;29;20064;-91
2024/01/17 01:37:40;;;;;;;55.58;42.13;;;;;;;;;;4885975;29;20111;-91
2024/01/17 01:40:07;;;;;;;50.42;40.67;;;;;;;;;;4886529;29;20032;-92
2024/01/17 01:42:34;;;;;;;49.90;40.00;;;;;;;;;;4885539;29;20095;-91
2024/01/17 01:45:00;;;;;;;50.55;40.22;;;;;;;;;;4885993;29;20037;-94
2024/01/17 01:47:31;;;;;;;42.15;37.60;;;;;;;;;;4895486;29;20028;-93
2024/01/17 01:50:01;;;;;;;50.60;38.55;;;;;;;;;;4907005;29;20088;-93
2024/01/17 01:52:30;;;;;;;52.38;40.20;;;;;;;;;;4888607;29;20076;-91
2024/01/17 01:54:59;;;;;;;50.95;39.58;;;;;;;;;;4877098;29;20383;-92
2024/01/17 01:57:25;;;;;;;56.33;39.88;;;;;;;;;;4884446;29;20037;-92
2024/01/17 01:59:57;;;;;;;51.55;40.80;;;;;;;;;;4884912;29;20047;-93
2024/01/17 02:02:30;;;;;;;49.47;38.23;;;;;;;;;;4885071;29;20032;-92
2024/01/17 02:04:58;;;;;;;52.25;38.53;;;;;;;;;;4884632;29;20021;-93
2024/01/17 02:10:42;;;;;;;49.97;37.20;;;;;;;;;;4901928;29;20043;-92
2024/01/17 02:13:11;;;;;;;44.40;39.08;;;;;;;;;;4884623;29;20285;-92
2024/01/17 02:15:43;;;;;;;43.60;35.25;;;;;;;;;;4885103;29;20143;-91
2024/01/17 02:24:28;;;;;;;43.67;38.22;;;;;;;;;;4882385;29;20157;-91
2024/01/17 02:27:01;;;;;;;50.10;37.60;;;;;;;;;;4866508;29;20128;-93
2024/01/17 02:29:39;;;;;;;45.05;38.65;;;;;;;;;;4848284;29;20038;-96
2024/01/17 02:32:17;;;;;;;42.25;36.95;;;;;;;;;;4847418;29;20029;-95
2024/01/17 02:34:50;;;;;;;43.50;37.40;;;;;;;;;;4847129;29;20038;-92
2024/01/17 02:37:16;;;;;;;39.53;35.28;;;;;;;;;;4847732;29;20025;-91
2024/01/17 02:39:48;;;;;;;40.70;36.38;;;;;;;;;;4847181;29;20068;-92
2024/01/17 02:42:17;;;;;;;41.22;36.00;;;;;;;;;;4870739;29;20037;-91
2024/01/17 02:45:17;;;;;;;41.22;36.53;;;;;;;;;;4865954;29;20033;-93
2024/01/17 02:47:47;;;;;;;40.53;36.63;;;;;;;;;;4865400;29;20029;-92
2024/01/17 02:50:41;;;;;;;42.55;37.17;;;;;;;;;;4865468;29;20036;-92
2024/01/17 02:53:07;;;;;;;;;;;;;;;;;;4865754;29;20044;-91
2024/01/17 02:55:39;;;;;;;41.42;36.65;;;;;;;;;;4874550;29;19911;-91
2024/01/17 02:58:05;;;;;;;44.92;40.13;;;;;;;;;;4884080;29;20032;-93
2024/01/17 03:00:42;;;;;;;41.45;37.25;;;;;;;;;;4883816;29;20087;-92
2024/01/17 03:03:34;;;;;;;42.25;37.72;;;;;;;;;;4881927;29;20135;-92
2024/01/17 03:09:07;;;;;;;40.33;36.38;;;;;;;;;;4863282;29;20048;-92
2024/01/17 03:11:36;;;;;;;41.88;37.83;;;;;;;;;;4862074;29;20120;-90
2024/01/17 03:14:03;;;;;;;41.40;37.05;;;;;;;;;;4882957;29;20502;-95
2024/01/17 03:19:35;;;;;;;41.50;37.13;;;;;;;;;;4880093;29;20165;-91
2024/01/17 03:22:01;;;;;;;45.40;34.95;;;;;;;;;;4880187;29;20037;-91
2024/01/17 03:24:27;;;;;;;44.80;37.38;;;;;;;;;;4879616;29;20060;-96
2024/01/17 03:27:03;;;;;;;43.13;38.15;;;;;;;;;;4862450;29;20455;-96
2024/01/17 03:29:44;;;;;;;42.90;38.58;;;;;;;;;;4883666;29;20029;-90
2024/01/17 03:32:15;;;;;;;42.15;36.35;;;;;;;;;;4995258;23;20063;-90
2024/01/17 03:35:04;;;;;;;41.40;37.28;;;;;;;;;;4884148;29;20131;-96
2024/01/17 03:37:42;;;;;;;42.15;37.10;;;;;;;;;;4877360;29;20067;-92
2024/01/17 03:40:08;;;;;;;43.42;39.03;;;;;;;;;;4883386;29;20032;-92
2024/01/17 03:42:37;;;;;;;43.20;38.13;;;;;;;;;;4877905;29;20037;-92
2024/01/17 03:45:03;;;;;;;46.20;39.97;;;;;;;;;;4864528;29;20475;-91
2024/01/17 03:47:32;;;;;;;43.25;38.67;;;;;;;;;;4863683;29;20037;-92
2024/01/17 03:49:58;;;;;;;44.28;38.97;;;;;;;;;;4879390;29;20131;-92
2024/01/17 03:52:24;;;;;;;38.30;34.42;;;;;;;;;;4883433;29;20108;-90
2024/01/17 03:54:53;;;;;;;44.08;36.80;;;;;;;;;;4882845;29;20040;-91
2024/01/17 03:57:19;;;;;;;43.92;36.88;;;;;;;;;;4899765;29;20036;-92
2024/01/17 03:59:45;;;;;;;41.70;37.15;;;;;;;;;;4882823;29;20033;-92
2024/01/17 04:02:19;;;;;;;39.78;33.35;;;;;;;;;;4886988;29;20036;-91
2024/01/17 04:04:47;;;;;;;43.53;36.97;;;;;;;;;;4853097;29;20032;-90
2024/01/17 04:07:21;;;;;;;44.80;37.40;;;;;;;;;;4885630;29;20033;-91
2024/01/17 04:09:50;;;;;;;40.92;35.85;;;;;;;;;;4861717;29;20033;-90
2024/01/17 04:12:24;;;;;;;42.28;37.67;;;;;;;;;;4864599;29;20122;-90
2024/01/17 04:14:52;;;;;;;41.38;37.05;;;;;;;;;;4861393;29;20059;-90
2024/01/17 04:17:19;;;;;;;42.67;37.33;;;;;;;;;;4889775;29;20043;-90
2024/01/17 04:19:45;;;;;;;42.30;38.20;;;;;;;;;;4884782;29;20039;-89
2024/01/17 04:22:11;;;;;;;41.28;36.75;;;;;;;;;;4883367;29;20024;-90
2024/01/17 04:24:37;;;;;;;39.75;35.35;;;;;;;;;;4884786;29;20063;-90
2024/01/17 04:27:15;;;;;;;42.03;37.50;;;;;;;;;;4883245;29;20064;-90
2024/01/17 04:29:47;;;;;;;40.72;36.42;;;;;;;;;;4868473;29;20037;-90
2024/01/17 04:32:16;;;;;;;38.65;34.38;;;;;;;;;;4864359;29;20084;-90
2024/01/17 04:34:42;;;;;;;37.60;33.67;;;;;;;;;;4864051;29;20530;-90
2024/01/17 04:37:08;;;;;;;39.95;35.63;;;;;;;;;;4864831;29;20057;-90
2024/01/17 04:39:40;;;;;;;42.90;35.53;;;;;;;;;;4864168;29;20112;-91
2024/01/17 04:42:09;;;;;;;37.38;33.28;;;;;;;;;;4865348;29;20048;-92
2024/01/17 04:44:35;;;;;;;39.38;35.08;;;;;;;;;;4882140;29;20036;-89
2024/01/17 04:47:07;;;;;;;45.25;36.55;;;;;;;;;;4882271;29;20431;-91
2024/01/17 04:49:33;;;;;;;49.28;36.45;;;;;;;;;;4882199;29;20041;-91
2024/01/17 04:52:03;;;;;;;43.83;35.53;;;;;;;;;;4882318;29;20035;-90
2024/01/17 04:54:32;;;;;;;42.90;35.63;;;;;;;;;;4882582;29;20103;-91
2024/01/17 04:57:01;;;;;;;45.47;34.30;;;;;;;;;;4876155;29;20160;-90
2024/01/17 04:59:29;;;;;;;48.17;32.63;;;;;;;;;;4868959;29;20036;-91
2024/01/17 05:01:58;;;;;;;37.33;29.73;;;;;;;;;;4870314;29;20029;-91
2024/01/17 05:04:30;;;;;;;46.65;35.38;;;;;;;;;;4870560;29;20039;-92
2024/01/17 05:06:56;;;;;;;50.40;45.38;;;;;;;;;;4875515;29;20033;-90
2024/01/17 05:09:25;;;;;;;58.65;52.88;;;;;;;;;;4878523;29;20025;-91
2024/01/17 05:11:51;;;;;;;56.92;51.97;;;;;;;;;;4905014;29;20021;-91
2024/01/17 05:14:20;;;;;;;65.75;59.22;;;;;;;;;;4902710;29;20071;-91
2024/01/17 05:16:46;;;;;;;54.95;49.92;;;;;;;;;;4888576;29;20032;-90
2024/01/17 05:19:18;;;;;;;69.55;63.17;;;;;;;;;;4888206;29;20501;-91
2024/01/17 05:21:47;;;;;;;83.43;76.32;;;;;;;;;;4879548;29;20025;-91
2024/01/17 05:24:17;;;;;;;77.07;70.22;;;;;;;;;;4869841;29;20048;-91
2024/01/17 05:26:43;;;;;;;85.25;78.28;;;;;;;;;;4869799;29;20033;-91
2024/01/17 05:29:11;;;;;;;85.38;77.80;;;;;;;;;;4869582;29;20025;-90
2024/01/17 05:34:50;;;;;;;69.10;62.28;;;;;;;;;;4886290;29;20051;-90
2024/01/17 05:37:28;;;;;;;73.60;67.05;;;;;;;;;;4869495;29;20033;-90
2024/01/17 05:39:57;;;;;;;73.43;66.45;;;;;;;;;;4869743;29;20088;-91
2024/01/17 05:42:46;;;;;;;93.53;85.45;;;;;;;;;;4869769;29;20052;-94
2024/01/17 05:45:16;;;;;;;83.63;76.35;;;;;;;;;;4869572;29;20502;-91
2024/01/17 05:47:42;;;;;;;89.28;82.65;;;;;;;;;;4869669;29;20048;-92
2024/01/17 05:50:09;;;;;;;79.38;72.57;;;;;;;;;;4869345;29;20032;-90
2024/01/17 05:53:03;;;;;;;79.03;72.40;;;;;;;;;;4865189;29;20049;-90
2024/01/17 05:55:32;;;;;;;60.35;54.53;;;;;;;;;;4865436;29;20037;-92
2024/01/17 06:05:48;;;;;;;63.97;57.35;;;;;;;;;;4901577;23;20055;-91
2024/01/17 06:39:36;;;;;;;110.75;102.13;;;;;;;;;;4824387;29;20512;-95
2024/01/17 09:10:25;;;;;;;42.35;38.25;;;;;;;;;;5965581;23;20043;31
2024/01/17 09:36:00;;;;;;;53.83;48.67;;;;;;;;;;5653244;23;20061;-95
2024/01/17 09:45:57;;;;;;;52.08;47.13;;;;;;;;;;4843696;29;19977;-93
2024/01/17 10:01:49;;;;;;;50.42;45.00;;;;;;;;;;4862992;29;20111;-94
2024/01/17 10:04:35;;;;;;;;;;;;;;;;;;;;;
2024/01/17 10:45:19;;;;;;;;;;;;;;;;;;;;;
2024/01/17 10:50:50;;;;;;;77.90;71.78;;;;;;;;;;4882655;29;20069;-94
2024/01/17 10:53:38;;;;;;;75.07;69.47;;;;;;;;;;4921684;23;20037;-95
2024/01/17 11:02:10;;;;;;;74.30;68.25;;;;;;;;;;4914383;23;20056;-93
2024/01/17 12:28:34;;;;;;;53.83;49.55;;;;;;;;;;5016629;23;20027;-92
2024/01/17 12:31:12;;;;;;;46.35;42.05;;;;;;;;;;4856940;29;20070;-94
2024/01/17 12:37:31;;;;;;;46.95;42.90;;;;;;;;;;4824533;29;20038;-92
2024/01/17 12:40:20;;;;;;;46.60;42.58;;;;;;;;;;4808034;29;20041;-94
2024/01/17 13:10:44;;;;;;;56.10;51.22;;;;;;;;;;4787547;30;20034;-92
2024/01/17 13:16:19;;;;;;;60.40;55.40;;;;;;;;;;4803520;29;20089;-91
2024/01/17 13:24:55;;;;;;;53.58;49.05;;;;;;;;;;4846664;29;20141;-91
2024/01/17 14:20:27;;;;;;;51.13;46.67;;;;;;;;;;4904206;29;20100;-95
2024/01/17 14:26:12;;;;;;;46.60;41.83;;;;;;;;;;4880816;29;20093;-96
2024/01/17 14:42:28;;;;;;;44.88;40.58;;;;;;;;;;5123467;23;20064;-92
2024/01/17 14:44:58;;;;;;;40.13;36.15;;;;;;;;;;4873532;29;20037;-93
2024/01/17 15:01:24;;;;;;;52.35;46.70;;;;;;;;;;4876975;29;20068;-93
2024/01/17 15:03:53;;;;;;;53.85;48.45;;;;;;;;;;4846035;29;20072;-92
2024/01/17 15:06:26;;;;;;;44.03;38.08;;;;;;;;;;4845633;29;20045;-94
2024/01/17 15:09:13;;;;;;;;;;;;;;;;;;4846316;29;20416;-93
2024/01/17 15:11:45;;;;;;;63.20;57.50;;;;;;;;;;4846245;29;20366;-91
2024/01/17 15:14:15;;;;;;;52.95;47.28;;;;;;;;;;4846290;29;20033;-91
2024/01/17 15:16:48;;;;;;;48.58;43.85;;;;;;;;;;4846220;29;20471;-93
2024/01/17 15:19:49;;;;;;;55.28;50.22;;;;;;;;;;4846006;29;20026;-93
2024/01/17 15:22:16;;;;;;;50.75;45.78;;;;;;;;;;4846525;29;20034;-91
2024/01/17 15:25:11;;;;;;;53.00;48.13;;;;;;;;;;4845875;29;20108;-93
2024/01/17 15:28:14;;;;;;;46.22;41.83;;;;;;;;;;4845833;29;20041;-91
2024/01/17 15:34:14;;;;;;;46.88;42.58;;;;;;;;;;4842230;29;20298;-92
2024/01/17 15:36:43;;;;;;;47.85;43.17;;;;;;;;;;4830638;29;20145;-93
2024/01/17 15:39:21;;;;;;;41.85;37.13;;;;;;;;;;4826982;29;20072;-94
2024/01/17 15:47:57;;;;;;;49.28;44.15;;;;;;;;;;5072050;23;20088;-93
2024/01/17 15:50:27;;;;;;;57.03;51.83;;;;;;;;;;4883298;29;20033;-92
2024/01/17 15:53:23;;;;;;;51.67;46.75;;;;;;;;;;4883511;29;20029;-93
2024/01/17 15:55:51;;;;;;;65.30;59.30;;;;;;;;;;4899246;29;20516;-89
2024/01/17 15:58:30;;;;;;;;;;;;;;;;;;;;;
2024/01/17 16:04:11;;;;;;;44.65;40.13;;;;;;;;;;4824915;29;20167;-96
2024/01/17 16:06:50;;;;;;;43.53;38.95;;;;;;;;;;4823424;29;20505;-96
2024/01/17 16:09:39;;;;;;;44.60;39.78;;;;;;;;;;4805671;29;20038;-93
2024/01/17 16:12:08;;;;;;;46.33;41.47;;;;;;;;;;4821841;29;20036;-96
2024/01/17 16:23:25;;;;;;;52.15;47.30;;;;;;;;;;4870846;29;20037;-92
2024/01/17 16:25:51;;;;;;;56.25;51.22;;;;;;;;;;4882457;29;20478;-94
2024/01/17 16:28:27;;;;;;;62.40;56.55;;;;;;;;;;4878697;29;20037;-94
2024/01/17 16:36:52;;;;;;;59.70;54.10;;;;;;;;;;4878690;29;20043;-95
2024/01/17 16:39:35;;;;;;;64.10;58.15;;;;;;;;;;4860265;29;20069;-96
2024/01/17 16:42:10;;;;;;;64.43;58.67;;;;;;;;;;4859830;29;20030;-94
2024/01/17 16:47:39;;;;;;;61.47;56.17;;;;;;;;;;4881395;29;20045;-94
2024/01/17 16:50:18;;;;;;;50.88;46.13;;;;;;;;;;4882805;29;20512;-94
2024/01/17 16:52:51;;;;;;;63.13;57.35;;;;;;;;;;4881813;29;20059;-94
2024/01/17 16:55:44;;;;;;;77.07;70.80;;;;;;;;;;4881656;29;20037;-93
2024/01/17 17:01:42;;;;;;;55.47;50.00;;;;;;;;;;4841052;29;20034;-95
2024/01/17 17:11:01;;;;;;;54.67;49.47;;;;;;;;;;4799187;29;20084;-95
2024/01/17 17:13:40;;;;;;;47.33;41.75;;;;;;;;;;4781133;29;20038;-95
2024/01/17 17:19:20;;;;;;;55.63;49.42;;;;;;;;;;4816422;29;20518;-93
2024/01/17 17:22:08;;;;;;;60.90;50.03;;;;;;;;;;4880242;29;20106;-93
2024/01/17 17:24:44;;;;;;;59.70;47.67;;;;;;;;;;4898474;29;20162;-93
2024/01/17 17:27:46;;;;;;;69.68;62.55;;;;;;;;;;4888110;29;20040;-94
2024/01/17 17:30:15;;;;;;;55.47;50.20;;;;;;;;;;4895139;29;20071;-94
2024/01/17 17:35:47;;;;;;;68.43;62.70;;;;;;;;;;4940150;23;20093;-96
2024/01/17 17:38:22;;;;;;;72.32;66.28;;;;;;;;;;4889254;29;20036;-96
2024/01/17 17:40:52;;;;;;;70.65;64.18;;;;;;;;;;4886567;29;20041;-94
2024/01/17 17:43:18;;;;;;;76.10;70.07;;;;;;;;;;4882171;29;20024;-96
2024/01/17 17:45:50;;;;;;;69.63;63.53;;;;;;;;;;4883687;29;20111;-94
2024/01/17 17:48:31;;;;;;;86.88;80.07;;;;;;;;;;4883834;29;20031;-94
2024/01/17 17:51:04;;;;;;;75.40;69.30;;;;;;;;;;4873148;29;20060;-94
2024/01/17 17:53:45;;;;;;;88.90;82.03;;;;;;;;;;4872661;29;20506;-95
2024/01/17 17:56:29;;;;;;;80.43;73.60;;;;;;;;;;4884875;29;20288;-96
2024/01/17 17:59:01;;;;;;;93.40;86.30;;;;;;;;;;4883505;29;20610;-94
2024/01/17 18:01:30;;;;;;;63.88;58.05;;;;;;;;;;4877106;29;20044;-94
2024/01/17 18:04:05;;;;;;;81.03;73.93;;;;;;;;;;4881858;29;20028;-93
2024/01/17 18:06:51;;;;;;;;;;;;;;;;;;;;;
2024/01/17 18:09:18;;;;;;;82.07;75.55;;;;;;;;;;4886531;29;20096;-94
2024/01/17 18:11:47;;;;;;;74.97;68.72;;;;;;;;;;4867727;29;20042;-95
2024/01/17 18:14:39;;;;;;;78.07;71.45;;;;;;;;;;4872435;29;20055;-96
2024/01/17 18:17:12;;;;;;;81.47;74.90;;;;;;;;;;4872977;29;20070;-92
2024/01/17 18:22:31;;;;;;;86.78;79.03;;;;;;;;;;4847639;29;20045;-94
2024/01/17 18:25:13;;;;;;;82.70;75.68;;;;;;;;;;4834402;29;20034;-94
2024/01/17 18:27:52;;;;;;;77.90;71.30;;;;;;;;;;4831719;29;20075;-96
2024/01/17 18:30:45;;;;;;;81.90;74.90;;;;;;;;;;4833442;29;20069;-96
2024/01/17 18:33:45;;;;;;;87.57;80.05;;;;;;;;;;4848560;29;20030;-96
2024/01/17 18:36:45;;;;;;;77.32;70.20;;;;;;;;;;4818255;29;20082;-94
2024/01/17 18:39:14;;;;;;;88.28;81.00;;;;;;;;;;4829300;29;20582;-90
2024/01/17 18:41:41;;;;;;;69.40;62.38;;;;;;;;;;4882411;29;20031;-91
2024/01/17 18:44:16;;;;;;;61.20;54.90;;;;;;;;;;4866171;29;20025;-94
2024/01/17 18:46:45;;;;;;;73.07;66.55;;;;;;;;;;4866251;29;20072;-90
2024/01/17 18:52:08;;;;;;;107.07;97.47;;;;;;;;;;4884390;29;20079;-95
2024/01/17 18:54:37;;;;;;;62.28;55.90;;;;;;;;;;4866561;29;20044;-91
2024/01/17 18:57:08;;;;;;;64.70;58.50;;;;;;;;;;4868100;29;20025;-92
2024/01/17 18:59:43;;;;;;;96.03;87.20;;;;;;;;;;4884442;29;20036;-91
2024/01/17 19:02:19;;;;;;;77.50;70.75;;;;;;;;;;4884492;29;20589;-90
2024/01/17 19:04:45;;;;;;;47.65;42.53;;;;;;;;;;4870645;29;20037;-92
2024/01/17 19:07:26;;;;;;;59.60;53.28;;;;;;;;;;4865852;29;20037;-91
2024/01/17 19:10:11;;;;;;;63.95;57.92;;;;;;;;;;4882182;29;20036;-93
2024/01/17 19:12:52;;;;;;;63.70;57.10;;;;;;;;;;4895001;29;20080;-95
2024/01/17 19:18:51;;;;;;;54.40;48.90;;;;;;;;;;4860058;29;20025;-95
2024/01/17 19:21:18;;;;;;;42.35;27.98;;;;;;;;;;4866364;29;20124;-95
2024/01/17 19:23:48;;;;;;;43.03;27.67;;;;;;;;;;4865356;29;20108;-96
2024/01/17 19:26:17;;;;;;;47.42;31.83;;;;;;;;;;4881495;29;20036;-95
2024/01/17 19:29:04;;;;;;;42.45;31.00;;;;;;;;;;4884340;29;20598;-96
2024/01/17 19:31:33;;;;;;;41.83;31.35;;;;;;;;;;4876063;29;20032;-95
2024/01/17 19:34:22;;;;;;;42.08;31.80;;;;;;;;;;4865900;29;20064;-94
2024/01/17 19:45:29;;;;;;;43.85;22.75;;;;;;;;;;4806742;29;20034;-95
2024/01/17 19:48:08;;;;;;;42.13;23.58;;;;;;;;;;4840404;29;20044;-95
2024/01/17 19:50:37;;;;;;;33.95;22.27;;;;;;;;;;4865006;29;20033;-96
2024/01/17 19:53:03;;;;;;;37.22;22.17;;;;;;;;;;4864634;29;20383;-94
2024/01/17 19:58:46;;;;;;;36.17;20.80;;;;;;;;;;4794968;29;20414;-95
2024/01/17 20:01:15;;;;;;;33.63;19.92;;;;;;;;;;4864091;29;20041;-94
2024/01/17 20:03:48;;;;;;;33.25;20.25;;;;;;;;;;4864515;29;20032;-93
2024/01/17 20:06:26;;;;;;;31.27;17.20;;;;;;;;;;4874944;29;20029;-96
2024/01/17 20:08:58;;;;;;;37.75;20.38;;;;;;;;;;4883736;29;20035;-96
2024/01/17 20:11:33;;;;;;;32.17;18.80;;;;;;;;;;4880473;29;20069;-95
2024/01/17 20:14:31;;;;;;;;;;;;;;;;;;;;;
2024/01/17 20:17:19;;;;;;;36.70;20.13;;;;;;;;;;4882000;29;20048;-95
2024/01/17 20:19:52;;;;;;;30.52;18.88;;;;;;;;;;4866612;29;20128;-92
2024/01/17 20:22:56;;;;;;;;;;;;;;;;;;;;;
2024/01/17 20:25:44;;;;;;;33.50;20.20;;;;;;;;;;4886515;29;20110;-96
2024/01/17 20:34:36;;;;;;;45.30;26.00;;;;;;;;;;5141086;23;20064;-90
2024/01/17 20:37:05;;;;;;;37.20;22.05;;;;;;;;;;4868040;29;20081;-94
2024/01/17 20:39:34;;;;;;;35.88;21.67;;;;;;;;;;4864689;29;20044;-93
2024/01/17 20:42:18;;;;;;;36.22;22.17;;;;;;;;;;4864259;29;20031;-91
2024/01/17 20:44:50;;;;;;;40.25;23.17;;;;;;;;;;4883320;29;20115;-94
2024/01/17 20:47:22;;;;;;;44.55;23.90;;;;;;;;;;4872428;29;20033;-96
2024/01/17 20:49:55;;;;;;;38.45;24.27;;;;;;;;;;4865391;29;20062;-95
2024/01/17 20:52:28;;;;;;;37.17;23.00;;;;;;;;;;4868047;29;20033;-93
2024/01/17 20:55:03;;;;;;;;;;;;;;;;;;4869072;29;20033;-95
2024/01/17 20:58:08;;;;;;;33.20;18.73;;;;;;;;;;4873041;29;19903;-93
2024/01/17 21:00:38;;;;;;;32.20;19.23;;;;;;;;;;4894100;29;20047;-94
2024/01/17 21:03:07;;;;;;;36.30;21.92;;;;;;;;;;4895151;29;20498;-94
2024/01/17 21:05:40;;;;;;;35.38;21.50;;;;;;;;;;4871920;29;20053;-96
2024/01/17 21:08:18;;;;;;;33.60;20.15;;;;;;;;;;4865211;29;20029;-93
2024/01/17 21:10:49;;;;;;;34.72;20.25;;;;;;;;;;4868499;29;20032;-94
2024/01/17 21:13:27;;;;;;;36.85;22.20;;;;;;;;;;4866476;29;20497;-92
2024/01/17 21:15:54;;;;;;;39.97;23.52;;;;;;;;;;4883322;29;20048;-92
2024/01/17 21:18:26;;;;;;;36.38;22.65;;;;;;;;;;4882810;29;20168;-92
2024/01/17 21:20:55;;;;;;;39.63;22.88;;;;;;;;;;4883258;29;20052;-93
2024/01/17 21:23:26;;;;;;;41.75;24.50;;;;;;;;;;4878306;29;20045;-93
2024/01/17 21:25:55;;;;;;;45.80;28.00;;;;;;;;;;4878613;29;20037;-92
2024/01/17 21:31:03;;;;;;;44.65;25.30;;;;;;;;;;4881321;29;20057;-93
2024/01/17 21:33:41;;;;;;;47.70;27.85;;;;;;;;;;4865311;29;20044;-96
2024/01/17 21:36:19;;;;;;;44.47;25.98;;;;;;;;;;4867453;29;20056;-92
2024/01/17 21:38:45;;;;;;;46.97;26.35;;;;;;;;;;4882380;29;20080;-93
2024/01/17 21:41:11;;;;;;;42.65;26.15;;;;;;;;;;4885990;29;20125;-93
2024/01/17 21:43:57;;;;;;;;;;;;;;;;;;;;;
2024/01/17 21:56:02;;;;;;;35.72;22.08;;;;;;;;;;4845295;29;20086;-95
2024/01/17 21:58:50;;;;;;;37.28;22.88;;;;;;;;;;4829158;29;20154;-95
2024/01/17 22:01:21;;;;;;;35.20;21.73;;;;;;;;;;4877058;29;20037;-95
2024/01/17 22:03:53;;;;;;;35.25;22.35;;;;;;;;;;4885882;29;20123;-91
2024/01/17 22:06:20;;;;;;;35.90;22.58;;;;;;;;;;4886154;29;20025;-96
2024/01/17 22:08:51;;;;;;;35.08;21.17;;;;;;;;;;4885766;29;20028;-95
2024/01/17 22:11:18;;;;;;;31.85;20.60;;;;;;;;;;4885028;29;20045;-95
2024/01/17 22:13:59;;;;;;;34.95;19.95;;;;;;;;;;4885265;29;20024;-94
2024/01/17 22:16:35;;;;;;;35.85;19.30;;;;;;;;;;4885184;29;20036;-93
2024/01/17 22:19:05;;;;;;;32.53;20.50;;;;;;;;;;4861934;29;20161;-94
2024/01/17 22:21:32;;;;;;;32.97;19.48;;;;;;;;;;4847712;29;20064;-94
2024/01/17 22:24:00;;;;;;;43.85;23.27;;;;;;;;;;4847031;29;20041;-93
2024/01/17 22:26:31;;;;;;;40.65;22.27;;;;;;;;;;4847117;29;20506;-92
2024/01/17 22:29:08;;;;;;;39.88;22.80;;;;;;;;;;4847163;29;20057;-94
2024/01/17 22:31:37;;;;;;;36.65;20.90;;;;;;;;;;4847340;29;20416;-93
2024/01/17 22:34:08;;;;;;;38.03;23.05;;;;;;;;;;4847063;29;20400;-95
2024/01/17 22:36:34;;;;;;;34.72;20.90;;;;;;;;;;4847633;29;20571;-92
2024/01/17 22:39:00;;;;;;;38.63;21.25;;;;;;;;;;4847128;29;20570;-95
2024/01/17 22:41:29;;;;;;;37.40;21.58;;;;;;;;;;4847601;29;20038;-92
2024/01/17 22:49:40;;;;;;;36.80;22.58;;;;;;;;;;4901741;29;20115;-91
2024/01/17 22:52:11;;;;;;;38.60;23.45;;;;;;;;;;4883591;29;20064;-91
2024/01/17 22:57:44;;;;;;;36.28;20.67;;;;;;;;;;4862775;29;20045;-95
2024/01/17 23:06:04;;;;;;;44.63;23.95;;;;;;;;;;4862197;29;20073;-95
2024/01/17 23:08:30;;;;;;;37.08;21.27;;;;;;;;;;4846503;29;20152;-95
2024/01/17 23:11:03;;;;;;;37.47;21.50;;;;;;;;;;4846386;29;20038;-91
2024/01/17 23:13:38;;;;;;;42.13;22.52;;;;;;;;;;4846225;29;20033;-93
2024/01/17 23:16:07;;;;;;;33.65;20.70;;;;;;;;;;4845996;29;20759;-95
2024/01/17 23:21:39;;;;;;;42.20;21.70;;;;;;;;;;4862097;29;20068;-92
2024/01/17 23:24:10;;;;;;;39.40;22.42;;;;;;;;;;4845759;29;20111;-94
2024/01/17 23:32:44;;;;;;;35.42;20.65;;;;;;;;;;4900595;29;20043;-95
2024/01/17 23:35:10;;;;;;;36.72;19.15;;;;;;;;;;4883742;29;20131;-95
2024/01/17 23:37:45;;;;;;;39.33;20.52;;;;;;;;;;4883074;29;20089;-95
2024/01/17 23:40:26;;;;;;;34.90;20.33;;;;;;;;;;4883976;29;20036;-93
2024/01/17 23:42:58;;;;;;;34.35;19.48;;;;;;;;;;4883754;29;20088;-94
2024/01/17 23:45:33;;;;;;;36.60;21.00;;;;;;;;;;4882921;29;20056;-96
2024/01/17 23:48:02;;;;;;;38.13;21.20;;;;;;;;;;4883520;29;20070;-94
2024/01/17 23:50:28;;;;;;;36.42;19.80;;;;;;;;;;4883338;29;20060;-94
2024/01/17 23:53:03;;;;;;;37.70;21.00;;;;;;;;;;4883598;29;20072;-96
2024/01/17 23:55:29;;;;;;;41.10;22.00;;;;;;;;;;4883636;29;20496;-93
2024/01/17 23:57:55;;;;;;;40.63;21.55;;;;;;;;;;4883242;29;20079;-94
